Terminal Aerodrome Forecast
Issued by NWS Cleveland, OH

Home | Current Version | Previous Version | Graphics & Text | Print | Product List | Glossary On
Versions: 1 2 3 4 5 6 7 8 9 10 11 12 13 14 15 16 17 18 19
000
FTUS41 KCLE 172300
TAFYNG
TAF
KYNG 172330Z 1800/1824 04003KT P6SM SCT080
     FM180800 08003KT 5SM BR SCT080
     FM181300 09004KT P6SM SCT025 BKN080
     FM181700 07005KT P6SM SCT035 BKN070=

USA.gov is the U.S. government's official web portal to all federal, state and local government web resources and services.